sensor_id;sensor_type;location;lat;lon;timestamp;pressure;altitude;pressure_sealevel;temperature;humidity
79203;BME280;68630;42.748;23.278;2024-03-22T00:02:55;95579.24;;;5.36;49.15
79203;BME280;68630;42.748;23.278;2024-03-22T00:05:33;95576.13;;;5.43;48.81
79203;BME280;68630;42.748;23.278;2024-03-22T00:08:06;95574.81;;;5.43;48.53
79203;BME280;68630;42.748;23.278;2024-03-22T00:10:47;95575.74;;;5.42;48.40
79203;BME280;68630;42.748;23.278;2024-03-22T00:13:22;95571.72;;;5.22;49.76
79203;BME280;68630;42.748;23.278;2024-03-22T00:15:50;95579.00;;;5.26;49.69
79203;BME280;68630;42.748;23.278;2024-03-22T00:21:43;95579.20;;;5.16;49.92
79203;BME280;68630;42.748;23.278;2024-03-22T00:24:17;95576.38;;;5.04;50.67
79203;BME280;68630;42.748;23.278;2024-03-22T00:26:47;95573.64;;;5.06;51.22
79203;BME280;68630;42.748;23.278;2024-03-22T00:29:18;95568.84;;;4.91;51.92
79203;BME280;68630;42.748;23.278;2024-03-22T00:37:48;95578.05;;;4.55;51.95
79203;BME280;68630;42.748;23.278;2024-03-22T00:46:57;95581.92;;;4.12;54.64
79203;BME280;68630;42.748;23.278;2024-03-22T00:49:47;95573.85;;;4.15;54.17
79203;BME280;68630;42.748;23.278;2024-03-22T00:52:21;95573.69;;;4.25;54.04
79203;BME280;68630;42.748;23.278;2024-03-22T00:58:10;95570.26;;;4.16;54.68
79203;BME280;68630;42.748;23.278;2024-03-22T01:04:07;95567.38;;;4.28;54.17
79203;BME280;68630;42.748;23.278;2024-03-22T01:06:42;95568.91;;;4.32;54.07
79203;BME280;68630;42.748;23.278;2024-03-22T01:09:12;95571.72;;;4.36;54.15
79203;BME280;68630;42.748;23.278;2024-03-22T01:11:52;95578.95;;;4.25;54.95
79203;BME280;68630;42.748;23.278;2024-03-22T01:14:55;95571.54;;;4.32;54.38
79203;BME280;68630;42.748;23.278;2024-03-22T01:17:37;95576.06;;;4.37;54.36
79203;BME280;68630;42.748;23.278;2024-03-22T01:23:32;95574.45;;;4.35;53.83
79203;BME280;68630;42.748;23.278;2024-03-22T01:29:31;95575.77;;;4.35;53.13
79203;BME280;68630;42.748;23.278;2024-03-22T01:35:28;95582.68;;;4.14;53.44
79203;BME280;68630;42.748;23.278;2024-03-22T01:38:18;95583.39;;;3.79;54.62
79203;BME280;68630;42.748;23.278;2024-03-22T01:44:42;95583.73;;;3.49;56.14
79203;BME280;68630;42.748;23.278;2024-03-22T01:56:09;95583.27;;;3.18;56.56
79203;BME280;68630;42.748;23.278;2024-03-22T02:06:58;95587.30;;;3.00;56.85
79203;BME280;68630;42.748;23.278;2024-03-22T02:44:11;95600.34;;;1.83;60.24
79203;BME280;68630;42.748;23.278;2024-03-22T02:51:59;95601.98;;;2.12;58.96
79203;BME280;68630;42.748;23.278;2024-03-22T03:13:25;95620.08;;;2.18;60.17
79203;BME280;68630;42.748;23.278;2024-03-22T03:35:05;95651.97;;;1.37;61.68
79203;BME280;68630;42.748;23.278;2024-03-22T04:00:40;95650.99;;;1.85;60.48
79203;BME280;68630;42.748;23.278;2024-03-22T04:03:19;95660.72;;;1.83;61.08
79203;BME280;68630;42.748;23.278;2024-03-22T04:06:03;95669.30;;;1.31;62.71
79203;BME280;68630;42.748;23.278;2024-03-22T04:08:31;95668.88;;;1.49;62.38
79203;BME280;68630;42.748;23.278;2024-03-22T04:11:02;95665.08;;;1.56;62.13
79203;BME280;68630;42.748;23.278;2024-03-22T04:26:38;95679.47;;;2.12;61.20
79203;BME280;68630;42.748;23.278;2024-03-22T04:46:46;95700.54;;;3.40;57.32
79203;BME280;68630;42.748;23.278;2024-03-22T04:49:38;95604.54;;;3.54;54.95
79203;BME280;68630;42.748;23.278;2024-03-22T04:56:02;95692.50;;;5.40;51.79
79203;BME280;68630;42.748;23.278;2024-03-22T05:02:09;95701.80;;;5.03;51.42
79203;BME280;68630;42.748;23.278;2024-03-22T05:08:07;95703.60;;;4.35;53.94
79203;BME280;68630;42.748;23.278;2024-03-22T05:10:51;95707.03;;;4.21;54.17
79203;BME280;68630;42.748;23.278;2024-03-22T05:17:23;95716.72;;;4.04;54.49
79203;BME280;68630;42.748;23.278;2024-03-22T05:20:11;95716.47;;;4.09;54.29
79203;BME280;68630;42.748;23.278;2024-03-22T05:23:07;95718.50;;;4.20;54.43
79203;BME280;68630;42.748;23.278;2024-03-22T05:25:53;95721.22;;;4.34;54.11
79203;BME280;68630;42.748;23.278;2024-03-22T05:32:06;95728.00;;;4.61;53.04
79203;BME280;68630;42.748;23.278;2024-03-22T05:34:41;95730.06;;;4.56;53.71
79203;BME280;68630;42.748;23.278;2024-03-22T05:37:16;95734.02;;;3.85;55.55
79203;BME280;68630;42.748;23.278;2024-03-22T05:45:49;95738.17;;;4.67;53.96
79203;BME280;68630;42.748;23.278;2024-03-22T05:48:17;95739.39;;;4.92;53.64
79203;BME280;68630;42.748;23.278;2024-03-22T05:50:49;95742.08;;;5.78;51.59
79203;BME280;68630;42.748;23.278;2024-03-22T05:53:21;95735.89;;;7.73;46.73
79203;BME280;68630;42.748;23.278;2024-03-22T05:55:52;95740.05;;;10.19;42.37
79203;BME280;68630;42.748;23.278;2024-03-22T05:58:42;95732.54;;;12.46;37.62
79203;BME280;68630;42.748;23.278;2024-03-22T06:04:28;95733.08;;;16.04;32.06
79203;BME280;68630;42.748;23.278;2024-03-22T06:07:00;95735.71;;;17.73;29.10
79203;BME280;68630;42.748;23.278;2024-03-22T06:09:30;95733.35;;;18.50;27.33
79203;BME280;68630;42.748;23.278;2024-03-22T06:12:06;95735.45;;;19.34;26.28
79203;BME280;68630;42.748;23.278;2024-03-22T06:21:41;95736.87;;;20.70;24.04
79203;BME280;68630;42.748;23.278;2024-03-22T06:24:10;95730.15;;;19.87;25.41
79203;BME280;68630;42.748;23.278;2024-03-22T06:26:50;95737.12;;;20.00;25.14
79203;BME280;68630;42.748;23.278;2024-03-22T06:29:21;95741.33;;;19.11;26.25
79203;BME280;68630;42.748;23.278;2024-03-22T06:31:48;95735.16;;;19.71;25.11
79203;BME280;68630;42.748;23.278;2024-03-22T06:34:21;95732.91;;;19.98;24.78
79203;BME280;68630;42.748;23.278;2024-03-22T06:36:47;95734.44;;;20.60;25.07
79203;BME280;68630;42.748;23.278;2024-03-22T06:39:16;95737.66;;;21.00;23.63
79203;BME280;68630;42.748;23.278;2024-03-22T06:44:42;95736.84;;;21.21;23.52
79203;BME280;68630;42.748;23.278;2024-03-22T06:47:10;95741.42;;;21.46;23.85
79203;BME280;68630;42.748;23.278;2024-03-22T06:53:09;95735.52;;;23.02;23.38
79203;BME280;68630;42.748;23.278;2024-03-22T06:55:39;95745.45;;;23.05;22.66
79203;BME280;68630;42.748;23.278;2024-03-22T06:58:07;95747.14;;;21.91;23.35
79203;BME280;68630;42.748;23.278;2024-03-22T07:00:36;95747.11;;;23.30;22.48
79203;BME280;68630;42.748;23.278;2024-03-22T07:03:07;95748.72;;;24.20;20.46
79203;BME280;68630;42.748;23.278;2024-03-22T07:05:34;95758.30;;;25.50;19.10
79203;BME280;68630;42.748;23.278;2024-03-22T07:08:01;95742.59;;;25.61;19.36
79203;BME280;68630;42.748;23.278;2024-03-22T07:10:32;95748.55;;;25.29;19.09
79203;BME280;68630;42.748;23.278;2024-03-22T07:13:04;95749.64;;;25.76;18.62
79203;BME280;68630;42.748;23.278;2024-03-22T07:19:00;95753.60;;;26.56;17.72
79203;BME280;68630;42.748;23.278;2024-03-22T07:22:05;95754.33;;;26.97;16.85
79203;BME280;68630;42.748;23.278;2024-03-22T07:45:40;95748.21;;;29.46;15.17
79203;BME280;68630;42.748;23.278;2024-03-22T08:09:56;95746.91;;;26.67;16.82
79203;BME280;68630;42.748;23.278;2024-03-22T08:25:35;95742.42;;;27.59;16.63
79203;BME280;68630;42.748;23.278;2024-03-22T08:28:04;95734.48;;;27.57;16.37
79203;BME280;68630;42.748;23.278;2024-03-22T08:34:02;95729.50;;;26.18;17.83
79203;BME280;68630;42.748;23.278;2024-03-22T08:36:31;95679.64;;;25.70;17.52
79203;BME280;68630;42.748;23.278;2024-03-22T08:38:59;95737.11;;;25.52;18.25
79203;BME280;68630;42.748;23.278;2024-03-22T08:41:27;95737.78;;;25.18;18.53
79203;BME280;68630;42.748;23.278;2024-03-22T08:43:54;95730.20;;;26.23;17.64
79203;BME280;68630;42.748;23.278;2024-03-22T08:46:21;95727.52;;;28.63;16.67
79203;BME280;68630;42.748;23.278;2024-03-22T08:48:52;95724.34;;;26.44;20.14
79203;BME280;68630;42.748;23.278;2024-03-22T08:51:21;95722.98;;;28.33;16.19
79203;BME280;68630;42.748;23.278;2024-03-22T08:53:54;95724.87;;;27.18;18.32
79203;BME280;68630;42.748;23.278;2024-03-22T08:56:25;95721.81;;;26.96;17.80
79203;BME280;68630;42.748;23.278;2024-03-22T08:58:52;95723.95;;;27.33;17.01
79203;BME280;68630;42.748;23.278;2024-03-22T09:01:20;95725.20;;;27.00;16.88
79203;BME280;68630;42.748;23.278;2024-03-22T09:03:50;95724.08;;;29.46;15.32
79203;BME280;68630;42.748;23.278;2024-03-22T09:06:18;95724.88;;;29.18;15.31
79203;BME280;68630;42.748;23.278;2024-03-22T09:09:07;95717.01;;;29.21;15.06
79203;BME280;68630;42.748;23.278;2024-03-22T09:11:35;95678.91;;;26.59;16.87
79203;BME280;68630;42.748;23.278;2024-03-22T09:14:02;95713.61;;;26.24;17.49
79203;BME280;68630;42.748;23.278;2024-03-22T09:16:32;95713.69;;;26.70;17.02
79203;BME280;68630;42.748;23.278;2024-03-22T09:18:59;95709.04;;;26.18;17.46
79203;BME280;68630;42.748;23.278;2024-03-22T09:21:27;95715.63;;;25.08;18.30
79203;BME280;68630;42.748;23.278;2024-03-22T09:23:54;95710.13;;;24.00;19.04
79203;BME280;68630;42.748;23.278;2024-03-22T09:26:22;95701.32;;;25.58;18.26
79203;BME280;68630;42.748;23.278;2024-03-22T09:28:49;95698.95;;;25.52;18.90
79203;BME280;68630;42.748;23.278;2024-03-22T09:31:19;95702.06;;;26.57;19.63
79203;BME280;68630;42.748;23.278;2024-03-22T09:40:25;95695.59;;;22.65;20.63
79203;BME280;68630;42.748;23.278;2024-03-22T09:46:11;95694.73;;;23.56;20.20
79203;BME280;68630;42.748;23.278;2024-03-22T09:48:43;95683.27;;;23.81;19.34
79203;BME280;68630;42.748;23.278;2024-03-22T09:51:11;95683.49;;;24.85;18.18
79203;BME280;68630;42.748;23.278;2024-03-22T09:53:47;95681.73;;;26.43;17.25
79203;BME280;68630;42.748;23.278;2024-03-22T09:56:13;95677.69;;;27.20;17.02
79203;BME280;68630;42.748;23.278;2024-03-22T09:58:45;95688.25;;;26.61;16.97
79203;BME280;68630;42.748;23.278;2024-03-22T10:01:13;95674.16;;;27.61;16.62
79203;BME280;68630;42.748;23.278;2024-03-22T10:03:46;95671.75;;;27.86;16.13
79203;BME280;68630;42.748;23.278;2024-03-22T10:06:15;95674.41;;;26.81;16.89
79203;BME280;68630;42.748;23.278;2024-03-22T10:08:48;95680.28;;;23.29;19.76
79203;BME280;68630;42.748;23.278;2024-03-22T10:11:21;95673.61;;;24.19;18.86
79203;BME280;68630;42.748;23.278;2024-03-22T10:13:53;95606.35;;;24.23;19.99
79203;BME280;68630;42.748;23.278;2024-03-22T10:16:22;95659.33;;;25.02;19.34
79203;BME280;68630;42.748;23.278;2024-03-22T10:18:50;95662.13;;;26.09;18.18
79203;BME280;68630;42.748;23.278;2024-03-22T10:21:22;95665.67;;;23.57;19.51
79203;BME280;68630;42.748;23.278;2024-03-22T10:23:49;95656.78;;;25.07;19.15
79203;BME280;68630;42.748;23.278;2024-03-22T10:26:18;95656.61;;;23.94;19.54
79203;BME280;68630;42.748;23.278;2024-03-22T10:29:08;95657.84;;;24.11;19.50
79203;BME280;68630;42.748;23.278;2024-03-22T10:31:36;95651.74;;;24.52;19.37
79203;BME280;68630;42.748;23.278;2024-03-22T10:34:08;95646.45;;;23.79;19.70
79203;BME280;68630;42.748;23.278;2024-03-22T10:36:33;95649.77;;;24.07;19.65
79203;BME280;68630;42.748;23.278;2024-03-22T10:39:19;95645.28;;;23.17;20.28
79203;BME280;68630;42.748;23.278;2024-03-22T10:41:48;95645.53;;;21.19;21.79
79203;BME280;68630;42.748;23.278;2024-03-22T10:44:16;95644.55;;;20.32;23.19
79203;BME280;68630;42.748;23.278;2024-03-22T10:46:51;95639.58;;;18.69;25.32
79203;BME280;68630;42.748;23.278;2024-03-22T10:49:21;95632.55;;;17.93;25.76
79203;BME280;68630;42.748;23.278;2024-03-22T10:51:59;95637.54;;;18.04;26.12
79203;BME280;68630;42.748;23.278;2024-03-22T10:54:32;95631.89;;;17.91;29.92
79203;BME280;68630;42.748;23.278;2024-03-22T10:57:02;95630.86;;;17.92;26.40
79203;BME280;68630;42.748;23.278;2024-03-22T10:59:49;95630.61;;;16.84;27.49
79203;BME280;68630;42.748;23.278;2024-03-22T11:02:27;95616.85;;;16.95;28.18
79203;BME280;68630;42.748;23.278;2024-03-22T11:05:02;95629.55;;;16.52;28.07
79203;BME280;68630;42.748;23.278;2024-03-22T11:07:40;95619.31;;;16.01;28.16
79203;BME280;68630;42.748;23.278;2024-03-22T11:10:09;95612.09;;;16.05;28.73
79203;BME280;68630;42.748;23.278;2024-03-22T11:12:47;95603.19;;;16.56;27.70
79203;BME280;68630;42.748;23.278;2024-03-22T11:15:12;95607.55;;;16.48;28.25
79203;BME280;68630;42.748;23.278;2024-03-22T11:17:48;95534.48;;;16.53;27.64
79203;BME280;68630;42.748;23.278;2024-03-22T11:20:16;95601.55;;;17.25;27.57
79203;BME280;68630;42.748;23.278;2024-03-22T11:23:06;95605.19;;;16.62;27.38
79203;BME280;68630;42.748;23.278;2024-03-22T11:25:35;95598.80;;;16.55;28.65
79203;BME280;68630;42.748;23.278;2024-03-22T11:28:06;95596.56;;;16.25;27.89
79203;BME280;68630;42.748;23.278;2024-03-22T11:30:39;95591.28;;;15.99;27.92
79203;BME280;68630;42.748;23.278;2024-03-22T11:33:08;95600.17;;;15.69;28.10
79203;BME280;68630;42.748;23.278;2024-03-22T11:35:39;95593.52;;;15.17;28.42
79203;BME280;68630;42.748;23.278;2024-03-22T11:38:13;95589.50;;;16.24;28.56
79203;BME280;68630;42.748;23.278;2024-03-22T11:40:48;95592.18;;;16.24;28.53
79203;BME280;68630;42.748;23.278;2024-03-22T11:43:18;95575.98;;;16.75;28.49
79203;BME280;68630;42.748;23.278;2024-03-22T11:45:53;95577.14;;;17.30;29.08
79203;BME280;68630;42.748;23.278;2024-03-22T11:48:21;95572.96;;;16.78;28.84
79203;BME280;68630;42.748;23.278;2024-03-22T11:50:51;95574.94;;;17.42;26.16
79203;BME280;68630;42.748;23.278;2024-03-22T11:53:21;95577.19;;;17.06;26.49
79203;BME280;68630;42.748;23.278;2024-03-22T11:55:52;95572.95;;;16.70;27.07
79203;BME280;68630;42.748;23.278;2024-03-22T11:58:20;95583.51;;;15.84;28.21
79203;BME280;68630;42.748;23.278;2024-03-22T12:01:19;95572.44;;;15.52;28.98
79203;BME280;68630;42.748;23.278;2024-03-22T12:03:52;95570.44;;;15.02;29.34
79203;BME280;68630;42.748;23.278;2024-03-22T12:06:30;95570.58;;;15.23;29.72
79203;BME280;68630;42.748;23.278;2024-03-22T12:09:00;95569.91;;;15.25;30.16
79203;BME280;68630;42.748;23.278;2024-03-22T12:11:27;95558.41;;;15.71;28.53
79203;BME280;68630;42.748;23.278;2024-03-22T12:13:57;95550.44;;;15.75;28.79
79203;BME280;68630;42.748;23.278;2024-03-22T12:16:27;95549.37;;;16.15;30.76
79203;BME280;68630;42.748;23.278;2024-03-22T12:18:58;95538.50;;;16.41;29.39
79203;BME280;68630;42.748;23.278;2024-03-22T12:21:29;95549.45;;;15.84;29.53
79203;BME280;68630;42.748;23.278;2024-03-22T12:24:03;95538.73;;;16.84;31.09
79203;BME280;68630;42.748;23.278;2024-03-22T12:26:29;95535.09;;;16.10;29.40
79203;BME280;68630;42.748;23.278;2024-03-22T12:28:58;95530.12;;;16.56;30.92
79203;BME280;68630;42.748;23.278;2024-03-22T12:31:27;95530.28;;;17.12;26.81
79203;BME280;68630;42.748;23.278;2024-03-22T12:33:58;95523.90;;;16.47;26.57
79203;BME280;68630;42.748;23.278;2024-03-22T12:36:27;95529.77;;;17.13;25.57
79203;BME280;68630;42.748;23.278;2024-03-22T12:38:55;95524.41;;;17.09;25.51
79203;BME280;68630;42.748;23.278;2024-03-22T12:44:33;95517.53;;;17.58;25.28
79203;BME280;68630;42.748;23.278;2024-03-22T12:47:00;95516.01;;;16.99;27.04
79203;BME280;68630;42.748;23.278;2024-03-22T12:49:33;95514.89;;;17.50;25.94
79203;BME280;68630;42.748;23.278;2024-03-22T12:52:03;95509.62;;;16.96;28.47
79203;BME280;68630;42.748;23.278;2024-03-22T12:54:32;95520.39;;;16.68;26.99
79203;BME280;68630;42.748;23.278;2024-03-22T12:57:01;95524.55;;;16.29;27.16
79203;BME280;68630;42.748;23.278;2024-03-22T12:59:38;95514.61;;;16.05;28.38
79203;BME280;68630;42.748;23.278;2024-03-22T13:02:14;95520.04;;;15.36;28.87
79203;BME280;68630;42.748;23.278;2024-03-22T13:04:53;95524.48;;;15.23;28.52
79203;BME280;68630;42.748;23.278;2024-03-22T13:07:22;95514.08;;;14.90;28.58
79203;BME280;68630;42.748;23.278;2024-03-22T13:09:50;95511.69;;;14.60;29.16
79203;BME280;68630;42.748;23.278;2024-03-22T13:12:24;95515.58;;;14.66;28.86
79203;BME280;68630;42.748;23.278;2024-03-22T13:15:01;95513.20;;;14.63;29.46
79203;BME280;68630;42.748;23.278;2024-03-22T13:17:30;95512.35;;;14.58;28.70
79203;BME280;68630;42.748;23.278;2024-03-22T13:20:03;95510.25;;;14.52;29.04
79203;BME280;68630;42.748;23.278;2024-03-22T13:22:38;95505.72;;;14.53;28.35
79203;BME280;68630;42.748;23.278;2024-03-22T13:25:10;95501.80;;;14.83;28.42
79203;BME280;68630;42.748;23.278;2024-03-22T13:27:41;95505.82;;;14.83;28.71
79203;BME280;68630;42.748;23.278;2024-03-22T13:30:10;95501.50;;;14.90;28.76
79203;BME280;68630;42.748;23.278;2024-03-22T13:32:39;95500.24;;;14.76;28.30
79203;BME280;68630;42.748;23.278;2024-03-22T13:35:12;95489.34;;;15.00;28.42
79203;BME280;68630;42.748;23.278;2024-03-22T13:37:46;95490.24;;;15.13;27.54
79203;BME280;68630;42.748;23.278;2024-03-22T13:40:16;95481.46;;;15.29;27.84
79203;BME280;68630;42.748;23.278;2024-03-22T13:42:49;95488.17;;;15.33;28.19
79203;BME280;68630;42.748;23.278;2024-03-22T13:45:23;95475.69;;;15.15;30.29
79203;BME280;68630;42.748;23.278;2024-03-22T13:47:53;95474.52;;;15.52;28.16
79203;BME280;68630;42.748;23.278;2024-03-22T13:50:25;95468.65;;;15.57;27.53
79203;BME280;68630;42.748;23.278;2024-03-22T13:52:57;95463.66;;;15.74;27.12
79203;BME280;68630;42.748;23.278;2024-03-22T13:55:34;95462.23;;;15.93;28.71
79203;BME280;68630;42.748;23.278;2024-03-22T13:58:07;95463.94;;;16.22;26.82
79203;BME280;68630;42.748;23.278;2024-03-22T14:00:36;95460.38;;;15.93;26.31
79203;BME280;68630;42.748;23.278;2024-03-22T14:03:08;95457.84;;;15.83;26.65
79203;BME280;68630;42.748;23.278;2024-03-22T14:05:46;95450.56;;;15.63;26.56
79203;BME280;68630;42.748;23.278;2024-03-22T14:08:20;95457.16;;;15.30;27.93
79203;BME280;68630;42.748;23.278;2024-03-22T14:13:51;95365.08;;;14.45;28.08
79203;BME280;68630;42.748;23.278;2024-03-22T14:16:21;95453.98;;;15.01;27.76
79203;BME280;68630;42.748;23.278;2024-03-22T14:18:56;95453.16;;;15.00;27.09
79203;BME280;68630;42.748;23.278;2024-03-22T14:21:29;95450.84;;;15.05;28.21
79203;BME280;68630;42.748;23.278;2024-03-22T14:24:01;95456.52;;;15.02;27.54
79203;BME280;68630;42.748;23.278;2024-03-22T14:26:34;95440.02;;;15.23;27.04
79203;BME280;68630;42.748;23.278;2024-03-22T14:29:05;95442.17;;;15.11;27.03
79203;BME280;68630;42.748;23.278;2024-03-22T14:31:37;95446.10;;;14.47;27.95
79203;BME280;68630;42.748;23.278;2024-03-22T14:34:19;95436.59;;;14.70;27.60
79203;BME280;68630;42.748;23.278;2024-03-22T14:36:47;95428.58;;;14.78;27.87
79203;BME280;68630;42.748;23.278;2024-03-22T14:39:23;95434.96;;;14.82;27.72
79203;BME280;68630;42.748;23.278;2024-03-22T14:41:54;95438.45;;;14.56;28.45
79203;BME280;68630;42.748;23.278;2024-03-22T14:44:24;95443.58;;;14.45;28.24
79203;BME280;68630;42.748;23.278;2024-03-22T14:46:52;95433.09;;;14.56;27.97
79203;BME280;68630;42.748;23.278;2024-03-22T14:49:39;95433.17;;;14.60;27.70
79203;BME280;68630;42.748;23.278;2024-03-22T14:52:08;95426.14;;;14.63;27.89
79203;BME280;68630;42.748;23.278;2024-03-22T14:54:40;95422.22;;;14.53;28.54
79203;BME280;68630;42.748;23.278;2024-03-22T15:00:24;95429.48;;;14.61;29.92
79203;BME280;68630;42.748;23.278;2024-03-22T15:02:55;95429.80;;;14.84;28.17
79203;BME280;68630;42.748;23.278;2024-03-22T15:05:32;95429.45;;;14.83;28.07
79203;BME280;68630;42.748;23.278;2024-03-22T15:08:14;95428.36;;;14.98;27.93
79203;BME280;68630;42.748;23.278;2024-03-22T15:10:45;95425.01;;;14.96;28.07
79203;BME280;68630;42.748;23.278;2024-03-22T15:13:25;95425.38;;;14.75;28.57
79203;BME280;68630;42.748;23.278;2024-03-22T15:19:03;95430.41;;;14.74;28.73
79203;BME280;68630;42.748;23.278;2024-03-22T15:21:33;95427.47;;;14.59;28.19
79203;BME280;68630;42.748;23.278;2024-03-22T15:24:04;95430.71;;;14.49;28.65
79203;BME280;68630;42.748;23.278;2024-03-22T15:26:39;95432.64;;;14.38;28.50
79203;BME280;68630;42.748;23.278;2024-03-22T15:29:06;95429.95;;;14.34;28.69
79203;BME280;68630;42.748;23.278;2024-03-22T15:31:37;95433.26;;;14.32;28.30
79203;BME280;68630;42.748;23.278;2024-03-22T15:34:05;95430.54;;;14.24;28.11
79203;BME280;68630;42.748;23.278;2024-03-22T15:36:39;95427.16;;;14.22;28.95
79203;BME280;68630;42.748;23.278;2024-03-22T15:39:17;95434.66;;;14.18;28.21
79203;BME280;68630;42.748;23.278;2024-03-22T15:41:45;95432.66;;;14.20;28.36
79203;BME280;68630;42.748;23.278;2024-03-22T15:44:20;95426.33;;;14.21;28.66
79203;BME280;68630;42.748;23.278;2024-03-22T15:46:52;95427.86;;;14.24;28.86
79203;BME280;68630;42.748;23.278;2024-03-22T15:49:41;95428.47;;;14.18;30.52
79203;BME280;68630;42.748;23.278;2024-03-22T15:52:15;95431.27;;;13.94;30.21
79203;BME280;68630;42.748;23.278;2024-03-22T15:54:51;95432.87;;;13.69;31.32
79203;BME280;68630;42.748;23.278;2024-03-22T15:57:24;95429.95;;;13.76;31.60
79203;BME280;68630;42.748;23.278;2024-03-22T15:59:56;95438.06;;;13.71;31.65
79203;BME280;68630;42.748;23.278;2024-03-22T16:02:29;95445.92;;;13.68;31.89
79203;BME280;68630;42.748;23.278;2024-03-22T16:05:29;95440.98;;;13.59;32.39
79203;BME280;68630;42.748;23.278;2024-03-22T16:08:03;95444.66;;;13.44;32.85
79203;BME280;68630;42.748;23.278;2024-03-22T16:10:40;95442.61;;;13.28;33.19
79203;BME280;68630;42.748;23.278;2024-03-22T16:13:15;95439.08;;;13.14;33.48
79203;BME280;68630;42.748;23.278;2024-03-22T16:16:02;95436.91;;;13.00;33.54
79203;BME280;68630;42.748;23.278;2024-03-22T16:18:41;95443.62;;;12.90;34.04
79203;BME280;68630;42.748;23.278;2024-03-22T16:24:18;95440.67;;;12.69;34.57
79203;BME280;68630;42.748;23.278;2024-03-22T16:26:48;95451.55;;;12.58;34.90
79203;BME280;68630;42.748;23.278;2024-03-22T16:29:19;95451.37;;;12.46;35.28
79203;BME280;68630;42.748;23.278;2024-03-22T16:31:51;95458.88;;;12.36;35.54
79203;BME280;68630;42.748;23.278;2024-03-22T16:34:24;95458.75;;;12.28;35.69
79203;BME280;68630;42.748;23.278;2024-03-22T16:37:01;95461.78;;;12.20;36.08
79203;BME280;68630;42.748;23.278;2024-03-22T16:39:28;95466.01;;;12.12;36.32
79203;BME280;68630;42.748;23.278;2024-03-22T16:42:02;95466.30;;;11.99;36.68
79203;BME280;68630;42.748;23.278;2024-03-22T16:45:04;95461.90;;;11.89;36.98
79203;BME280;68630;42.748;23.278;2024-03-22T16:47:38;95467.17;;;11.85;37.17
79203;BME280;68630;42.748;23.278;2024-03-22T16:50:09;95468.63;;;11.73;37.35
79203;BME280;68630;42.748;23.278;2024-03-22T16:52:50;95468.97;;;11.65;37.58
79203;BME280;68630;42.748;23.278;2024-03-22T16:55:29;95473.67;;;11.57;37.86
79203;BME280;68630;42.748;23.278;2024-03-22T16:57:59;95473.84;;;11.50;38.01
79203;BME280;68630;42.748;23.278;2024-03-22T17:00:31;95471.38;;;11.42;38.18
79203;BME280;68630;42.748;23.278;2024-03-22T17:03:00;95474.95;;;11.37;38.24
79203;BME280;68630;42.748;23.278;2024-03-22T17:05:38;95475.98;;;11.31;38.42
79203;BME280;68630;42.748;23.278;2024-03-22T17:08:11;95492.66;;;11.23;38.37
79203;BME280;68630;42.748;23.278;2024-03-22T17:10:46;95490.19;;;11.16;38.73
79203;BME280;68630;42.748;23.278;2024-03-22T17:13:20;95496.86;;;11.00;39.06
79203;BME280;68630;42.748;23.278;2024-03-22T17:15:55;95501.30;;;11.05;39.21
79203;BME280;68630;42.748;23.278;2024-03-22T17:18:27;95503.59;;;11.04;39.15
79203;BME280;68630;42.748;23.278;2024-03-22T17:21:01;95503.86;;;11.01;39.23
79203;BME280;68630;42.748;23.278;2024-03-22T17:27:10;95524.59;;;11.13;39.13
79203;BME280;68630;42.748;23.278;2024-03-22T17:29:41;95533.02;;;11.18;38.84
79203;BME280;68630;42.748;23.278;2024-03-22T17:32:13;95534.14;;;10.85;39.53
79203;BME280;68630;42.748;23.278;2024-03-22T17:34:40;95530.16;;;11.00;39.19
79203;BME280;68630;42.748;23.278;2024-03-22T17:37:08;95536.05;;;10.89;39.74
79203;BME280;68630;42.748;23.278;2024-03-22T17:39:42;95541.81;;;10.78;39.96
79203;BME280;68630;42.748;23.278;2024-03-22T17:42:09;95542.13;;;10.85;39.79
79203;BME280;68630;42.748;23.278;2024-03-22T17:44:37;95550.91;;;10.91;39.61
79203;BME280;68630;42.748;23.278;2024-03-22T17:47:06;95545.76;;;10.84;39.76
79203;BME280;68630;42.748;23.278;2024-03-22T17:49:35;95552.69;;;10.60;40.67
79203;BME280;68630;42.748;23.278;2024-03-22T17:52:03;95546.69;;;10.73;40.15
79203;BME280;68630;42.748;23.278;2024-03-22T17:57:44;95543.45;;;10.70;40.27
79203;BME280;68630;42.748;23.278;2024-03-22T18:00:14;95553.34;;;10.73;40.22
79203;BME280;68630;42.748;23.278;2024-03-22T18:02:46;95552.69;;;10.60;40.63
79203;BME280;68630;42.748;23.278;2024-03-22T18:05:15;95552.06;;;10.62;40.55
79203;BME280;68630;42.748;23.278;2024-03-22T18:07:48;95556.14;;;10.51;40.86
79203;BME280;68630;42.748;23.278;2024-03-22T18:10:13;95560.67;;;10.60;40.71
79203;BME280;68630;42.748;23.278;2024-03-22T18:12:40;95552.95;;;10.30;41.35
79203;BME280;68630;42.748;23.278;2024-03-22T18:15:11;95558.94;;;10.43;41.02
79203;BME280;68630;42.748;23.278;2024-03-22T18:17:56;95557.64;;;10.38;41.08
79203;BME280;68630;42.748;23.278;2024-03-22T18:20:25;95558.52;;;10.27;41.44
79203;BME280;68630;42.748;23.278;2024-03-22T18:22:56;95554.65;;;10.25;41.33
79203;BME280;68630;42.748;23.278;2024-03-22T18:25:31;95559.59;;;10.36;41.14
79203;BME280;68630;42.748;23.278;2024-03-22T18:28:09;95560.92;;;10.36;41.17
79203;BME280;68630;42.748;23.278;2024-03-22T18:30:44;95564.37;;;10.15;41.83
79203;BME280;68630;42.748;23.278;2024-03-22T18:33:14;95556.23;;;10.22;41.59
79203;BME280;68630;42.748;23.278;2024-03-22T18:35:53;95562.94;;;10.11;41.76
79203;BME280;68630;42.748;23.278;2024-03-22T18:38:22;95560.92;;;9.92;42.31
79203;BME280;68630;42.748;23.278;2024-03-22T18:40:54;95565.04;;;9.96;42.38
79203;BME280;68630;42.748;23.278;2024-03-22T18:43:21;95559.45;;;10.05;41.85
79203;BME280;68630;42.748;23.278;2024-03-22T18:45:49;95569.09;;;10.11;41.70